sensor_id;sensor_type;location;lat;lon;timestamp;pressure;altitude;pressure_sealevel;temperature;humidity
62011;BME280;47967;51.756;10.174;2022-08-02T00:02:16;100049.88;;;14.10;91.21
62011;BME280;47967;51.756;10.174;2022-08-02T00:06:19;100055.94;;;14.05;91.75
62011;BME280;47967;51.756;10.174;2022-08-02T00:10:21;100055.19;;;13.91;91.76
62011;BME280;47967;51.756;10.174;2022-08-02T00:14:24;100052.06;;;13.88;92.51
62011;BME280;47967;51.756;10.174;2022-08-02T00:18:28;100051.22;;;13.87;93.58
62011;BME280;47967;51.756;10.174;2022-08-02T00:22:30;100063.31;;;13.85;93.78
62011;BME280;47967;51.756;10.174;2022-08-02T00:26:33;100060.84;;;13.83;93.77
62011;BME280;47967;51.756;10.174;2022-08-02T00:30:35;100060.25;;;13.74;93.49
62011;BME280;47967;51.756;10.174;2022-08-02T00:34:39;100062.56;;;13.64;92.94
62011;BME280;47967;51.756;10.174;2022-08-02T00:38:43;100048.81;;;13.52;93.95
62011;BME280;47967;51.756;10.174;2022-08-02T00:42:46;100045.09;;;13.47;94.53
62011;BME280;47967;51.756;10.174;2022-08-02T00:46:49;100047.16;;;13.51;94.78
62011;BME280;47967;51.756;10.174;2022-08-02T00:50:53;100043.59;;;13.57;94.42
62011;BME280;47967;51.756;10.174;2022-08-02T00:54:56;100051.94;;;13.56;93.83
62011;BME280;47967;51.756;10.174;2022-08-02T00:58:59;100053.81;;;13.35;92.06
62011;BME280;47967;51.756;10.174;2022-08-02T01:03:02;100048.66;;;13.13;90.79
62011;BME280;47967;51.756;10.174;2022-08-02T01:07:08;100062.41;;;13.05;91.52
62011;BME280;47967;51.756;10.174;2022-08-02T01:11:14;100056.16;;;12.98;92.26
62011;BME280;47967;51.756;10.174;2022-08-02T01:15:17;100068.25;;;12.89;91.83
62011;BME280;47967;51.756;10.174;2022-08-02T01:19:32;100078.22;;;12.81;93.33
62011;BME280;47967;51.756;10.174;2022-08-02T01:23:48;100070.75;;;12.84;93.45
62011;BME280;47967;51.756;10.174;2022-08-02T01:28:16;100087.63;;;12.86;92.67
62011;BME280;47967;51.756;10.174;2022-08-02T01:32:28;100077.22;;;12.89;93.24
62011;BME280;47967;51.756;10.174;2022-08-02T01:36:37;100085.53;;;13.08;93.44
62011;BME280;47967;51.756;10.174;2022-08-02T01:40:41;100084.09;;;13.19;93.04
62011;BME280;47967;51.756;10.174;2022-08-02T01:44:48;100073.63;;;13.29;92.15
62011;BME280;47967;51.756;10.174;2022-08-02T01:48:53;100072.41;;;13.25;92.17
62011;BME280;47967;51.756;10.174;2022-08-02T01:52:59;100071.19;;;13.07;90.17
62011;BME280;47967;51.756;10.174;2022-08-02T01:57:05;100064.91;;;12.67;89.45
62011;BME280;47967;51.756;10.174;2022-08-02T02:01:10;100066.94;;;12.51;90.70
62011;BME280;47967;51.756;10.174;2022-08-02T02:05:20;100061.75;;;12.43;91.94
62011;BME280;47967;51.756;10.174;2022-08-02T02:09:26;100056.53;;;12.41;92.59
62011;BME280;47967;51.756;10.174;2022-08-02T02:13:29;100055.47;;;12.42;92.98
62011;BME280;47967;51.756;10.174;2022-08-02T02:17:36;100054.44;;;12.37;92.91
62011;BME280;47967;51.756;10.174;2022-08-02T02:22:00;100060.47;;;12.32;93.13
62011;BME280;47967;51.756;10.174;2022-08-02T02:26:04;100057.56;;;12.27;93.09
62011;BME280;47967;51.756;10.174;2022-08-02T02:30:11;100062.28;;;12.18;93.06
62011;BME280;47967;51.756;10.174;2022-08-02T02:34:24;100051.47;;;12.11;93.38
62011;BME280;47967;51.756;10.174;2022-08-02T02:38:30;100045.78;;;11.99;93.35
62011;BME280;47967;51.756;10.174;2022-08-02T02:42:33;100045.59;;;12.01;94.02
62011;BME280;47967;51.756;10.174;2022-08-02T02:46:37;100051.78;;;11.95;93.34
62011;BME280;47967;51.756;10.174;2022-08-02T02:50:42;100053.44;;;11.89;94.15
62011;BME280;47967;51.756;10.174;2022-08-02T02:54:46;100053.44;;;11.89;94.91
62011;BME280;47967;51.756;10.174;2022-08-02T02:58:50;100058.03;;;11.95;94.85
62011;BME280;47967;51.756;10.174;2022-08-02T03:02:55;100053.69;;;12.01;94.77
62011;BME280;47967;51.756;10.174;2022-08-02T03:07:00;100054.56;;;12.08;94.31
62011;BME280;47967;51.756;10.174;2022-08-02T03:11:02;100057.84;;;11.97;93.62
62011;BME280;47967;51.756;10.174;2022-08-02T03:15:06;100066.72;;;11.84;93.19
62011;BME280;47967;51.756;10.174;2022-08-02T03:19:09;100072.84;;;11.64;91.86
62011;BME280;47967;51.756;10.174;2022-08-02T03:23:13;100075.91;;;11.54;92.00
62011;BME280;47967;51.756;10.174;2022-08-02T03:27:16;100075.88;;;11.48;93.30
62011;BME280;47967;51.756;10.174;2022-08-02T03:31:18;100077.31;;;11.44;94.06
62011;BME280;47967;51.756;10.174;2022-08-02T03:35:21;100068.13;;;11.38;94.44
62011;BME280;47967;51.756;10.174;2022-08-02T03:39:26;100072.50;;;11.39;94.46
62011;BME280;47967;51.756;10.174;2022-08-02T03:43:29;100070.97;;;11.30;94.63
62011;BME280;47967;51.756;10.174;2022-08-02T03:47:32;100062.50;;;11.33;94.49
62011;BME280;47967;51.756;10.174;2022-08-02T03:51:35;100071.06;;;11.43;94.15
62011;BME280;47967;51.756;10.174;2022-08-02T03:55:40;100069.25;;;11.50;93.60
62011;BME280;47967;51.756;10.174;2022-08-02T03:59:44;100066.19;;;11.60;93.82
62011;BME280;47967;51.756;10.174;2022-08-02T04:03:47;100068.72;;;11.68;93.20
62011;BME280;47967;51.756;10.174;2022-08-02T04:07:49;100064.63;;;11.86;92.60
62011;BME280;47967;51.756;10.174;2022-08-02T04:12:14;100064.75;;;12.06;92.91
62011;BME280;47967;51.756;10.174;2022-08-02T04:16:19;100057.09;;;12.16;92.76
62011;BME280;47967;51.756;10.174;2022-08-02T04:20:25;100056.91;;;12.31;92.60
62011;BME280;47967;51.756;10.174;2022-08-02T04:24:31;100071.53;;;12.44;92.18
62011;BME280;47967;51.756;10.174;2022-08-02T04:28:37;100065.47;;;12.48;91.64
62011;BME280;47967;51.756;10.174;2022-08-02T04:32:41;100068.84;;;12.44;92.22
62011;BME280;47967;51.756;10.174;2022-08-02T04:36:44;100073.00;;;12.53;92.64
62011;BME280;47967;51.756;10.174;2022-08-02T04:40:52;100070.50;;;12.58;92.75
62011;BME280;47967;51.756;10.174;2022-08-02T04:44:56;100078.00;;;12.56;92.78
62011;BME280;47967;51.756;10.174;2022-08-02T04:48:59;100084.03;;;12.58;93.13
62011;BME280;47967;51.756;10.174;2022-08-02T04:53:05;100089.25;;;12.67;93.06
62011;BME280;47967;51.756;10.174;2022-08-02T04:57:07;100086.34;;;12.68;93.32
62011;BME280;47967;51.756;10.174;2022-08-02T05:01:25;100091.16;;;12.86;93.39
62011;BME280;47967;51.756;10.174;2022-08-02T05:05:28;100087.00;;;13.24;92.17
62011;BME280;47967;51.756;10.174;2022-08-02T05:09:30;100086.72;;;13.66;90.04
62011;BME280;47967;51.756;10.174;2022-08-02T05:13:33;100094.78;;;13.99;88.47
62011;BME280;47967;51.756;10.174;2022-08-02T05:17:57;100092.41;;;14.16;87.05
62011;BME280;47967;51.756;10.174;2022-08-02T05:21:59;100091.72;;;14.34;86.17
62011;BME280;47967;51.756;10.174;2022-08-02T05:26:02;100084.56;;;14.40;85.78
62011;BME280;47967;51.756;10.174;2022-08-02T05:30:06;100085.31;;;14.54;86.13
62011;BME280;47967;51.756;10.174;2022-08-02T05:34:10;100083.63;;;14.92;85.77
62011;BME280;47967;51.756;10.174;2022-08-02T05:38:13;100086.56;;;15.15;85.79
62011;BME280;47967;51.756;10.174;2022-08-02T05:42:16;100088.28;;;15.53;84.70
62011;BME280;47967;51.756;10.174;2022-08-02T05:46:18;100096.78;;;15.64;83.12
62011;BME280;47967;51.756;10.174;2022-08-02T05:50:22;100091.69;;;15.49;82.64
62011;BME280;47967;51.756;10.174;2022-08-02T05:54:32;100097.97;;;15.68;82.73
62011;BME280;47967;51.756;10.174;2022-08-02T05:58:48;100111.22;;;15.83;82.58
62011;BME280;47967;51.756;10.174;2022-08-02T06:03:02;100105.25;;;15.93;82.10
62011;BME280;47967;51.756;10.174;2022-08-02T06:07:09;100115.78;;;15.45;83.32
62011;BME280;47967;51.756;10.174;2022-08-02T06:11:14;100115.81;;;15.20;85.45
62011;BME280;47967;51.756;10.174;2022-08-02T06:15:18;100122.31;;;15.12;85.96
62011;BME280;47967;51.756;10.174;2022-08-02T06:19:21;100120.59;;;15.25;86.44
62011;BME280;47967;51.756;10.174;2022-08-02T06:23:27;100120.06;;;15.34;86.45
62011;BME280;47967;51.756;10.174;2022-08-02T06:27:30;100114.63;;;15.34;87.06
62011;BME280;47967;51.756;10.174;2022-08-02T06:31:34;100111.34;;;15.51;86.99
62011;BME280;47967;51.756;10.174;2022-08-02T06:35:43;100119.22;;;15.78;86.26
62011;BME280;47967;51.756;10.174;2022-08-02T06:39:48;100124.94;;;15.95;84.92
62011;BME280;47967;51.756;10.174;2022-08-02T06:43:54;100118.28;;;16.09;84.50
62011;BME280;47967;51.756;10.174;2022-08-02T06:48:20;100118.41;;;16.14;85.16
62011;BME280;47967;51.756;10.174;2022-08-02T06:52:24;100107.84;;;16.25;85.72
62011;BME280;47967;51.756;10.174;2022-08-02T06:56:31;100114.06;;;16.44;85.92
62011;BME280;47967;51.756;10.174;2022-08-02T07:00:34;100105.50;;;16.71;84.75
62011;BME280;47967;51.756;10.174;2022-08-02T07:04:37;100104.47;;;16.84;83.78
62011;BME280;47967;51.756;10.174;2022-08-02T07:08:39;100110.59;;;17.09;83.58
62011;BME280;47967;51.756;10.174;2022-08-02T07:13:01;100103.16;;;17.28;83.36
62011;BME280;47967;51.756;10.174;2022-08-02T07:17:03;100107.19;;;17.50;83.13
62011;BME280;47967;51.756;10.174;2022-08-02T07:21:06;100107.16;;;17.73;81.95
62011;BME280;47967;51.756;10.174;2022-08-02T07:25:10;100105.03;;;17.99;80.75
62011;BME280;47967;51.756;10.174;2022-08-02T07:29:14;100095.81;;;18.17;80.25
62011;BME280;47967;51.756;10.174;2022-08-02T07:33:17;100091.84;;;18.37;79.49
62011;BME280;47967;51.756;10.174;2022-08-02T07:37:39;100088.59;;;18.52;79.76
62011;BME280;47967;51.756;10.174;2022-08-02T07:42:02;100084.72;;;18.82;79.04
62011;BME280;47967;51.756;10.174;2022-08-02T07:46:09;100074.00;;;19.09;78.46
62011;BME280;47967;51.756;10.174;2022-08-02T07:50:12;100074.66;;;19.33;77.67
62011;BME280;47967;51.756;10.174;2022-08-02T07:54:16;100046.03;;;19.63;77.27
62011;BME280;47967;51.756;10.174;2022-08-02T07:58:18;100049.13;;;19.89;76.30
62011;BME280;47967;51.756;10.174;2022-08-02T08:02:22;100049.13;;;20.11;74.92
62011;BME280;47967;51.756;10.174;2022-08-02T08:06:25;100033.00;;;20.15;74.26
62011;BME280;47967;51.756;10.174;2022-08-02T08:10:29;100031.63;;;20.40;74.46
62011;BME280;47967;51.756;10.174;2022-08-02T08:14:32;100023.94;;;20.69;73.42
62011;BME280;47967;51.756;10.174;2022-08-02T08:18:36;100028.44;;;20.81;72.10
62011;BME280;47967;51.756;10.174;2022-08-02T08:22:39;100030.75;;;20.94;71.59
62011;BME280;47967;51.756;10.174;2022-08-02T08:26:41;100038.75;;;21.01;70.96
62011;BME280;47967;51.756;10.174;2022-08-02T08:30:44;100035.84;;;21.18;69.12
62011;BME280;47967;51.756;10.174;2022-08-02T08:34:49;100034.66;;;21.46;68.29
62011;BME280;47967;51.756;10.174;2022-08-02T08:38:52;100039.41;;;21.61;67.37
62011;BME280;47967;51.756;10.174;2022-08-02T08:42:54;100044.16;;;21.76;66.17
62011;BME280;47967;51.756;10.174;2022-08-02T08:46:58;100038.19;;;21.95;65.65
62011;BME280;47967;51.756;10.174;2022-08-02T08:51:09;100048.13;;;22.11;64.43
62011;BME280;47967;51.756;10.174;2022-08-02T08:55:13;100047.41;;;22.42;60.83
62011;BME280;47967;51.756;10.174;2022-08-02T08:59:16;100044.13;;;22.65;60.30
62011;BME280;47967;51.756;10.174;2022-08-02T09:03:19;100041.94;;;23.19;59.89
62011;BME280;47967;51.756;10.174;2022-08-02T09:07:22;100046.28;;;23.46;57.35
62011;BME280;47967;51.756;10.174;2022-08-02T09:11:25;100042.66;;;23.66;57.18
62011;BME280;47967;51.756;10.174;2022-08-02T09:15:28;100032.38;;;23.92;56.79
62011;BME280;47967;51.756;10.174;2022-08-02T09:19:30;100032.09;;;23.94;56.80
62011;BME280;47967;51.756;10.174;2022-08-02T09:23:35;100026.38;;;24.35;55.15
62011;BME280;47967;51.756;10.174;2022-08-02T09:27:38;100022.19;;;23.93;54.33
62011;BME280;47967;51.756;10.174;2022-08-02T09:31:41;100018.56;;;24.03;54.23
62011;BME280;47967;51.756;10.174;2022-08-02T09:35:58;100024.63;;;24.00;54.44
62011;BME280;47967;51.756;10.174;2022-08-02T09:40:10;100017.97;;;24.06;54.69
62011;BME280;47967;51.756;10.174;2022-08-02T09:44:13;100013.88;;;24.43;54.11
62011;BME280;47967;51.756;10.174;2022-08-02T09:48:16;100007.63;;;24.72;53.17
62011;BME280;47967;51.756;10.174;2022-08-02T09:52:25;100002.34;;;24.75;53.41
62011;BME280;47967;51.756;10.174;2022-08-02T09:56:46;100002.41;;;25.24;52.51
62011;BME280;47967;51.756;10.174;2022-08-02T10:00:53;99996.84;;;25.59;51.94
62011;BME280;47967;51.756;10.174;2022-08-02T10:04:56;100001.47;;;25.09;52.15
62011;BME280;47967;51.756;10.174;2022-08-02T10:09:00;99992.78;;;24.62;53.39
62011;BME280;47967;51.756;10.174;2022-08-02T10:13:05;99994.88;;;25.05;53.96
62011;BME280;47967;51.756;10.174;2022-08-02T10:17:08;99990.56;;;25.23;50.51
62011;BME280;47967;51.756;10.174;2022-08-02T10:21:14;99997.88;;;25.38;51.20
62011;BME280;47967;51.756;10.174;2022-08-02T10:25:17;99993.31;;;25.23;50.53
62011;BME280;47967;51.756;10.174;2022-08-02T10:29:33;99998.31;;;25.21;50.57
62011;BME280;47967;51.756;10.174;2022-08-02T10:33:57;99996.72;;;25.15;50.99
62011;BME280;47967;51.756;10.174;2022-08-02T10:38:05;99993.81;;;25.31;50.91
62011;BME280;47967;51.756;10.174;2022-08-02T10:42:09;99989.97;;;25.26;49.38
62011;BME280;47967;51.756;10.174;2022-08-02T10:46:22;99981.78;;;25.46;48.17
62011;BME280;47967;51.756;10.174;2022-08-02T10:50:50;99969.63;;;25.66;48.42
62011;BME280;47967;51.756;10.174;2022-08-02T10:54:55;99966.09;;;25.84;48.52
62011;BME280;47967;51.756;10.174;2022-08-02T10:59:22;99975.69;;;25.49;47.18
62011;BME280;47967;51.756;10.174;2022-08-02T11:03:34;99969.44;;;25.62;46.86
62011;BME280;47967;51.756;10.174;2022-08-02T11:07:41;99968.91;;;25.60;47.33
62011;BME280;47967;51.756;10.174;2022-08-02T11:11:59;99969.34;;;25.67;46.96
62011;BME280;47967;51.756;10.174;2022-08-02T11:16:04;99958.31;;;25.67;44.38
62011;BME280;47967;51.756;10.174;2022-08-02T11:20:19;99956.22;;;25.78;43.84
62011;BME280;47967;51.756;10.174;2022-08-02T11:24:24;99963.03;;;25.86;44.12
62011;BME280;47967;51.756;10.174;2022-08-02T11:28:28;99948.03;;;26.11;44.57
62011;BME280;47967;51.756;10.174;2022-08-02T11:32:31;99950.31;;;26.23;44.58
62011;BME280;47967;51.756;10.174;2022-08-02T11:36:45;99947.41;;;26.33;43.11
62011;BME280;47967;51.756;10.174;2022-08-02T11:40:49;99943.00;;;26.32;42.40
62011;BME280;47967;51.756;10.174;2022-08-02T11:44:58;99937.31;;;26.76;42.62
62011;BME280;47967;51.756;10.174;2022-08-02T11:49:11;99939.22;;;27.22;41.96
62011;BME280;47967;51.756;10.174;2022-08-02T11:53:15;99936.13;;;27.24;38.21
62011;BME280;47967;51.756;10.174;2022-08-02T11:57:19;99946.25;;;27.14;37.94
62011;BME280;47967;51.756;10.174;2022-08-02T12:01:22;99946.88;;;27.25;38.44
62011;BME280;47967;51.756;10.174;2022-08-02T12:05:25;99942.44;;;26.96;38.31
62011;BME280;47967;51.756;10.174;2022-08-02T12:09:49;99941.25;;;27.03;38.64
62011;BME280;47967;51.756;10.174;2022-08-02T12:13:51;99943.09;;;27.35;38.15
62011;BME280;47967;51.756;10.174;2022-08-02T12:17:58;99938.50;;;27.44;37.98
62011;BME280;47967;51.756;10.174;2022-08-02T12:22:22;99947.47;;;27.78;37.87
62011;BME280;47967;51.756;10.174;2022-08-02T12:26:29;99946.97;;;27.76;38.20
62011;BME280;47967;51.756;10.174;2022-08-02T12:30:48;99945.25;;;27.66;38.50
62011;BME280;47967;51.756;10.174;2022-08-02T12:35:03;99935.81;;;27.39;38.95
62011;BME280;47967;51.756;10.174;2022-08-02T12:39:10;99933.84;;;27.12;39.51
62011;BME280;47967;51.756;10.174;2022-08-02T12:43:19;99928.59;;;26.96;39.59
62011;BME280;47967;51.756;10.174;2022-08-02T12:47:23;99927.19;;;27.55;39.18
62011;BME280;47967;51.756;10.174;2022-08-02T12:51:37;99912.75;;;28.17;37.34
62011;BME280;47967;51.756;10.174;2022-08-02T12:56:00;99901.25;;;28.55;36.20
62011;BME280;47967;51.756;10.174;2022-08-02T13:00:07;99906.31;;;28.53;35.10
62011;BME280;47967;51.756;10.174;2022-08-02T13:04:10;99903.66;;;28.03;35.01
62011;BME280;47967;51.756;10.174;2022-08-02T13:08:14;99902.88;;;28.79;34.87
62011;BME280;47967;51.756;10.174;2022-08-02T13:12:17;99901.97;;;28.38;34.78
62011;BME280;47967;51.756;10.174;2022-08-02T13:16:21;99894.03;;;29.17;34.46
62011;BME280;47967;51.756;10.174;2022-08-02T13:20:31;99898.59;;;29.97;31.66
62011;BME280;47967;51.756;10.174;2022-08-02T13:24:34;99891.72;;;30.30;31.20
62011;BME280;47967;51.756;10.174;2022-08-02T13:28:56;99891.56;;;30.26;32.28
62011;BME280;47967;51.756;10.174;2022-08-02T13:33:00;99900.09;;;29.95;32.19
62011;BME280;47967;51.756;10.174;2022-08-02T13:37:03;99893.41;;;29.29;32.84
62011;BME280;47967;51.756;10.174;2022-08-02T13:41:06;99887.28;;;30.11;32.51
62011;BME280;47967;51.756;10.174;2022-08-02T13:45:11;99881.53;;;30.90;31.05
62011;BME280;47967;51.756;10.174;2022-08-02T13:49:16;99874.44;;;31.02;31.25
62011;BME280;47967;51.756;10.174;2022-08-02T13:53:23;99872.75;;;30.06;31.70
62011;BME280;47967;51.756;10.174;2022-08-02T13:57:26;99865.53;;;30.05;31.97
62011;BME280;47967;51.756;10.174;2022-08-02T14:01:29;99863.03;;;30.86;31.84
62011;BME280;47967;51.756;10.174;2022-08-02T14:05:38;99851.44;;;30.84;31.06
62011;BME280;47967;51.756;10.174;2022-08-02T14:09:49;99857.56;;;30.68;31.49
62011;BME280;47967;51.756;10.174;2022-08-02T14:13:52;99854.09;;;31.10;31.09
62011;BME280;47967;51.756;10.174;2022-08-02T14:17:55;99850.88;;;31.29;30.65
62011;BME280;47967;51.756;10.174;2022-08-02T14:21:59;99856.75;;;31.78;30.71
62011;BME280;47967;51.756;10.174;2022-08-02T14:26:12;99852.56;;;32.06;31.23
62011;BME280;47967;51.756;10.174;2022-08-02T14:30:28;99848.47;;;32.95;29.40
62011;BME280;47967;51.756;10.174;2022-08-02T14:34:31;99838.19;;;33.24;29.61
62011;BME280;47967;51.756;10.174;2022-08-02T14:38:35;99827.03;;;32.87;30.02
62011;BME280;47967;51.756;10.174;2022-08-02T14:42:38;99835.06;;;33.13;29.76
62011;BME280;47967;51.756;10.174;2022-08-02T14:46:41;99835.59;;;33.19;29.40
62011;BME280;47967;51.756;10.174;2022-08-02T14:50:43;99841.66;;;33.46;29.35
62011;BME280;47967;51.756;10.174;2022-08-02T14:54:47;99842.22;;;33.51;29.76
62011;BME280;47967;51.756;10.174;2022-08-02T14:58:50;99836.81;;;33.30;29.53
62011;BME280;47967;51.756;10.174;2022-08-02T15:02:53;99816.44;;;33.58;29.27
62011;BME280;47967;51.756;10.174;2022-08-02T15:06:55;99815.78;;;33.77;29.60
62011;BME280;47967;51.756;10.174;2022-08-02T15:10:59;99815.50;;;33.95;29.02
62011;BME280;47967;51.756;10.174;2022-08-02T15:15:02;99813.53;;;34.11;29.26
62011;BME280;47967;51.756;10.174;2022-08-02T15:19:05;99814.84;;;33.86;29.41
62011;BME280;47967;51.756;10.174;2022-08-02T15:23:08;99801.78;;;34.06;28.92
62011;BME280;47967;51.756;10.174;2022-08-02T15:27:14;99807.88;;;34.56;28.96
62011;BME280;47967;51.756;10.174;2022-08-02T15:31:17;99810.34;;;34.57;28.68
62011;BME280;47967;51.756;10.174;2022-08-02T15:35:33;99810.88;;;34.79;28.03
62011;BME280;47967;51.756;10.174;2022-08-02T15:39:36;99804.53;;;34.18;28.94
62011;BME280;47967;51.756;10.174;2022-08-02T15:43:40;99799.13;;;33.40;29.64
62011;BME280;47967;51.756;10.174;2022-08-02T15:48:02;99800.94;;;34.50;28.51
62011;BME280;47967;51.756;10.174;2022-08-02T15:52:05;99802.28;;;35.04;28.04
62011;BME280;47967;51.756;10.174;2022-08-02T15:56:08;99796.66;;;35.39;26.98
62011;BME280;47967;51.756;10.174;2022-08-02T16:00:15;99798.28;;;35.60;27.03
62011;BME280;47967;51.756;10.174;2022-08-02T16:04:19;99811.00;;;36.16;26.70
62011;BME280;47967;51.756;10.174;2022-08-02T16:08:22;99801.72;;;36.35;25.96
62011;BME280;47967;51.756;10.174;2022-08-02T16:12:24;99800.69;;;36.01;26.34
62011;BME280;47967;51.756;10.174;2022-08-02T16:16:35;99799.31;;;34.81;27.04
62011;BME280;47967;51.756;10.174;2022-08-02T16:20:39;99797.03;;;35.97;27.00
62011;BME280;47967;51.756;10.174;2022-08-02T16:24:42;99801.78;;;35.93;27.08
62011;BME280;47967;51.756;10.174;2022-08-02T16:28:44;99796.16;;;36.16;26.38
62011;BME280;47967;51.756;10.174;2022-08-02T16:32:48;99788.13;;;35.16;27.30
62011;BME280;47967;51.756;10.174;2022-08-02T16:36:51;99783.84;;;35.22;27.27
62011;BME280;47967;51.756;10.174;2022-08-02T16:40:54;99790.16;;;35.74;27.37
62011;BME280;47967;51.756;10.174;2022-08-02T16:45:02;99784.50;;;36.14;26.95
62011;BME280;47967;51.756;10.174;2022-08-02T16:49:06;99796.44;;;35.68;27.60
62011;BME280;47967;51.756;10.174;2022-08-02T16:53:29;99779.78;;;35.20;27.80
62011;BME280;47967;51.756;10.174;2022-08-02T16:57:37;99789.09;;;35.63;27.64
62011;BME280;47967;51.756;10.174;2022-08-02T17:01:45;99776.59;;;35.80;27.67
62011;BME280;47967;51.756;10.174;2022-08-02T17:06:09;99769.97;;;35.30;28.21
62011;BME280;47967;51.756;10.174;2022-08-02T17:10:16;99763.75;;;34.85;28.53
62011;BME280;47967;51.756;10.174;2022-08-02T17:14:19;99767.03;;;35.42;28.21
62011;BME280;47967;51.756;10.174;2022-08-02T17:18:27;99759.75;;;36.00;27.46
62011;BME280;47967;51.756;10.174;2022-08-02T17:22:31;99752.38;;;35.49;28.19
62011;BME280;47967;51.756;10.174;2022-08-02T17:26:37;99754.59;;;35.04;28.97
62011;BME280;47967;51.756;10.174;2022-08-02T17:30:40;99757.28;;;35.36;28.03
62011;BME280;47967;51.756;10.174;2022-08-02T17:34:45;99759.69;;;35.37;28.37
62011;BME280;47967;51.756;10.174;2022-08-02T17:38:58;99760.63;;;35.41;28.52
62011;BME280;47967;51.756;10.174;2022-08-02T17:43:06;99761.00;;;35.04;28.40
62011;BME280;47967;51.756;10.174;2022-08-02T17:47:17;99752.78;;;34.12;29.87
62011;BME280;47967;51.756;10.174;2022-08-02T17:51:19;99752.47;;;33.03;31.06
62011;BME280;47967;51.756;10.174;2022-08-02T17:55:43;99749.50;;;32.84;31.64
62011;BME280;47967;51.756;10.174;2022-08-02T17:59:56;99757.94;;;32.75;31.82
62011;BME280;47967;51.756;10.174;2022-08-02T18:04:04;99752.97;;;32.31;32.88
62011;BME280;47967;51.756;10.174;2022-08-02T18:08:07;99751.84;;;31.99;33.57
62011;BME280;47967;51.756;10.174;2022-08-02T18:12:12;99752.72;;;31.57;35.23
62011;BME280;47967;51.756;10.174;2022-08-02T18:16:18;99759.69;;;31.51;35.81
62011;BME280;47967;51.756;10.174;2022-08-02T18:20:22;99756.38;;;31.06;36.46
62011;BME280;47967;51.756;10.174;2022-08-02T18:24:25;99760.28;;;30.63;37.50
62011;BME280;47967;51.756;10.174;2022-08-02T18:28:30;99765.41;;;29.87;40.63
62011;BME280;47967;51.756;10.174;2022-08-02T18:32:36;99764.13;;;29.32;42.11
62011;BME280;47967;51.756;10.174;2022-08-02T18:36:58;99760.47;;;28.87;43.32
62011;BME280;47967;51.756;10.174;2022-08-02T18:41:01;99758.06;;;28.14;44.33
62011;BME280;47967;51.756;10.174;2022-08-02T18:45:14;99765.75;;;27.72;46.03
62011;BME280;47967;51.756;10.174;2022-08-02T18:49:36;99773.88;;;27.31;45.56
62011;BME280;47967;51.756;10.174;2022-08-02T18:53:47;99770.69;;;26.88;47.09
62011;BME280;47967;51.756;10.174;2022-08-02T18:57:52;99763.91;;;26.52;48.39
62011;BME280;47967;51.756;10.174;2022-08-02T19:02:16;99772.41;;;26.28;49.68
62011;BME280;47967;51.756;10.174;2022-08-02T19:06:19;99771.34;;;26.10;48.88
62011;BME280;47967;51.756;10.174;2022-08-02T19:10:28;99771.00;;;25.97;50.19
62011;BME280;47967;51.756;10.174;2022-08-02T19:14:30;99757.09;;;26.02;50.82
62011;BME280;47967;51.756;10.174;2022-08-02T19:18:34;99761.69;;;25.93;50.93
62011;BME280;47967;51.756;10.174;2022-08-02T19:22:37;99762.88;;;25.54;52.03
62011;BME280;47967;51.756;10.174;2022-08-02T19:26:40;99765.47;;;25.26;52.63
62011;BME280;47967;51.756;10.174;2022-08-02T19:30:51;99767.06;;;24.89;53.76
62011;BME280;47967;51.756;10.174;2022-08-02T19:34:55;99776.44;;;24.69;52.90
62011;BME280;47967;51.756;10.174;2022-08-02T19:39:00;99781.47;;;24.61;54.58
62011;BME280;47967;51.756;10.174;2022-08-02T19:43:02;99779.31;;;24.29;54.41
62011;BME280;47967;51.756;10.174;2022-08-02T19:47:25;99770.13;;;24.09;54.55
62011;BME280;47967;51.756;10.174;2022-08-02T19:51:40;99786.53;;;23.61;55.40
62011;BME280;47967;51.756;10.174;2022-08-02T19:55:56;99790.06;;;23.27;55.58
62011;BME280;47967;51.756;10.174;2022-08-02T20:00:05;99786.19;;;23.28;55.98
62011;BME280;47967;51.756;10.174;2022-08-02T20:04:15;99791.47;;;23.14;56.26
62011;BME280;47967;51.756;10.174;2022-08-02T20:08:25;99796.22;;;22.98;56.70
62011;BME280;47967;51.756;10.174;2022-08-02T20:12:36;99792.41;;;22.94;57.04
62011;BME280;47967;51.756;10.174;2022-08-02T20:16:40;99795.00;;;22.64;57.81
62011;BME280;47967;51.756;10.174;2022-08-02T20:20:42;99793.38;;;22.32;59.02
62011;BME280;47967;51.756;10.174;2022-08-02T20:24:47;99786.00;;;21.81;59.91
62011;BME280;47967;51.756;10.174;2022-08-02T20:28:50;99795.63;;;21.68;60.66
62011;BME280;47967;51.756;10.174;2022-08-02T20:32:53;99797.53;;;21.63;60.55
62011;BME280;47967;51.756;10.174;2022-08-02T20:37:18;99801.09;;;21.63;60.75
62011;BME280;47967;51.756;10.174;2022-08-02T20:41:41;99797.25;;;21.85;60.37
62011;BME280;47967;51.756;10.174;2022-08-02T20:45:47;99809.84;;;21.50;61.61
62011;BME280;47967;51.756;10.174;2022-08-02T20:49:50;99815.81;;;21.21;62.04
62011;BME280;47967;51.756;10.174;2022-08-02T20:54:14;99817.13;;;21.08;62.61
62011;BME280;47967;51.756;10.174;2022-08-02T20:58:23;99815.50;;;21.07;63.05
62011;BME280;47967;51.756;10.174;2022-08-02T21:02:28;99807.84;;;20.61;65.07
62011;BME280;47967;51.756;10.174;2022-08-02T21:06:30;99811.22;;;20.30;65.94
62011;BME280;47967;51.756;10.174;2022-08-02T21:18:39;99816.69;;;20.25;66.41
62011;BME280;47967;51.756;10.174;2022-08-02T21:22:42;99817.56;;;20.36;66.10
62011;BME280;47967;51.756;10.174;2022-08-02T21:26:45;99814.84;;;20.36;66.06
62011;BME280;47967;51.756;10.174;2022-08-02T21:30:50;99821.59;;;20.28;65.87